createdAt,value
2023-02-17T00:00:54.767Z,101366.50
2023-02-17T00:03:21.410Z,101358.84
2023-02-17T00:05:50.685Z,101364.84
2023-02-17T00:08:17.692Z,101367.56
2023-02-17T00:10:44.486Z,101370.50
2023-02-17T00:13:11.118Z,101368.13
2023-02-17T00:15:40.560Z,101378.63
2023-02-17T00:18:07.139Z,101374.88
2023-02-17T00:20:33.893Z,101377.75
2023-02-17T00:23:00.530Z,101377.34
2023-02-17T00:25:27.233Z,101378.41
2023-02-17T00:27:53.971Z,101375.66
2023-02-17T00:30:20.856Z,101388.84
2023-02-17T00:32:47.478Z,101389.41
2023-02-17T00:35:14.057Z,101381.28
2023-02-17T00:37:40.754Z,101377.84
2023-02-17T00:40:07.913Z,101375.28
2023-02-17T00:42:34.511Z,101373.34
2023-02-17T00:45:01.161Z,101372.44
2023-02-17T00:47:27.801Z,101371.44
2023-02-17T00:49:54.365Z,101375.75
2023-02-17T00:52:20.909Z,101377.53
2023-02-17T00:54:47.437Z,101374.81
2023-02-17T00:57:14.116Z,101369.59
2023-02-17T00:59:40.781Z,101368.50
2023-02-17T01:02:07.852Z,101366.91
2023-02-17T01:04:34.486Z,101368.78
2023-02-17T01:07:01.865Z,101366.41
2023-02-17T01:09:28.453Z,101367.91
2023-02-17T01:11:55.059Z,101366.16
2023-02-17T01:14:21.792Z,101369.06
2023-02-17T01:16:49.477Z,101361.97
2023-02-17T01:19:19.185Z,101361.41
2023-02-17T01:21:46.346Z,101357.66
2023-02-17T01:24:13.228Z,101363.31
2023-02-17T01:26:40.875Z,101367.41
2023-02-17T01:29:08.263Z,101360.00
2023-02-17T01:31:35.237Z,101353.56
2023-02-17T01:34:04.654Z,101353.22
2023-02-17T01:36:32.402Z,101358.66
2023-02-17T01:38:59.243Z,101361.31
2023-02-17T01:41:27.332Z,101354.13
2023-02-17T01:44:14.724Z,101362.09
2023-02-17T01:46:44.218Z,101360.34
2023-02-17T01:49:34.482Z,101368.66
2023-02-17T01:52:04.464Z,101364.03
2023-02-17T01:54:39.669Z,101366.00
2023-02-17T01:57:06.438Z,101358.72
2023-02-17T01:59:33.583Z,101366.94
2023-02-17T02:02:04.984Z,101363.28
2023-02-17T02:04:35.112Z,101370.22
2023-02-17T02:07:03.779Z,101362.84
2023-02-17T02:09:36.604Z,101368.69
2023-02-17T02:12:15.054Z,101373.91
2023-02-17T02:14:41.615Z,101361.06
2023-02-17T02:17:26.521Z,101363.94
2023-02-17T02:19:53.032Z,101355.88
2023-02-17T02:22:48.564Z,101355.09
2023-02-17T02:25:36.219Z,101359.06
2023-02-17T02:28:20.868Z,101358.97
2023-02-17T02:30:56.574Z,101360.31
2023-02-17T02:33:33.057Z,101366.84
2023-02-17T02:36:23.853Z,101359.56
2023-02-17T02:39:09.230Z,101361.88
2023-02-17T02:41:42.836Z,101361.56
2023-02-17T02:44:13.040Z,101358.13
2023-02-17T02:46:39.684Z,101362.13
2023-02-17T02:49:07.469Z,101351.28
2023-02-17T02:51:55.857Z,101348.75
2023-02-17T02:54:46.032Z,101346.50
2023-02-17T02:57:15.235Z,101338.75
2023-02-17T02:59:49.738Z,101344.75
2023-02-17T03:02:22.305Z,101346.81
2023-02-17T03:04:51.812Z,101339.97
2023-02-17T03:07:25.036Z,101351.25
2023-02-17T03:09:54.227Z,101345.06
2023-02-17T03:12:22.359Z,101339.88
2023-02-17T03:14:51.140Z,101337.22
2023-02-17T03:17:17.723Z,101334.22
2023-02-17T03:19:47.807Z,101333.00
2023-02-17T03:22:22.437Z,101330.44
2023-02-17T03:24:49.088Z,101328.22
2023-02-17T03:27:15.673Z,101330.78
2023-02-17T03:29:43.009Z,101329.59
2023-02-17T03:32:09.730Z,101332.66
2023-02-17T03:34:36.730Z,101331.56
2023-02-17T03:37:03.852Z,101328.38
2023-02-17T03:39:31.608Z,101334.69
2023-02-17T03:41:58.209Z,101340.19
2023-02-17T03:44:24.817Z,101333.69
2023-02-17T03:46:51.382Z,101340.72
2023-02-17T03:49:17.989Z,101340.72
2023-02-17T03:51:44.713Z,101340.63
2023-02-17T03:54:11.274Z,101343.16
2023-02-17T03:56:37.797Z,101344.50
2023-02-17T03:59:04.873Z,101346.81
2023-02-17T04:01:31.550Z,101338.66
2023-02-17T04:03:58.291Z,101351.78
2023-02-17T04:06:25.121Z,101354.00
2023-02-17T04:08:51.715Z,101350.13
2023-02-17T04:11:18.317Z,101350.88
2023-02-17T04:13:44.924Z,101350.22
2023-02-17T04:16:12.127Z,101358.16
2023-02-17T04:18:39.110Z,101355.97
2023-02-17T04:21:06.408Z,101357.09
2023-02-17T04:23:35.994Z,101353.78
2023-02-17T04:26:04.532Z,101363.47
2023-02-17T04:28:31.309Z,101359.38
2023-02-17T04:30:59.656Z,101358.50
2023-02-17T04:33:27.050Z,101357.06
2023-02-17T04:35:59.528Z,101358.06
2023-02-17T04:38:30.444Z,101356.50
2023-02-17T04:40:58.112Z,101352.59
2023-02-17T04:43:26.481Z,101355.00
2023-02-17T04:45:54.228Z,101350.84
2023-02-17T04:48:20.824Z,101351.66
2023-02-17T04:50:47.454Z,101359.78
2023-02-17T04:53:14.514Z,101366.66
2023-02-17T04:55:41.930Z,101360.00
2023-02-17T04:58:09.448Z,101364.91
2023-02-17T05:00:36.801Z,101369.06
2023-02-17T05:03:03.471Z,101367.06
2023-02-17T05:05:30.132Z,101368.41
2023-02-17T05:07:56.665Z,101370.72
2023-02-17T05:10:24.134Z,101378.34
2023-02-17T05:12:50.927Z,101380.19
2023-02-17T05:15:17.462Z,101377.09
2023-02-17T05:17:44.316Z,101381.16
2023-02-17T05:20:11.354Z,101381.06
2023-02-17T05:22:38.005Z,101378.25
2023-02-17T05:25:05.284Z,101386.88
2023-02-17T05:27:32.902Z,101390.66
2023-02-17T05:29:59.630Z,101393.31
2023-02-17T05:32:26.181Z,101388.47
2023-02-17T05:34:52.744Z,101384.72
2023-02-17T05:37:19.354Z,101390.88
2023-02-17T05:39:46.626Z,101382.72
2023-02-17T05:42:13.309Z,101391.25
2023-02-17T05:44:39.869Z,101393.91
2023-02-17T05:47:06.557Z,101384.38
2023-02-17T05:49:33.072Z,101385.38
2023-02-17T05:51:59.616Z,101392.34
2023-02-17T05:54:26.199Z,101389.47
2023-02-17T05:56:52.729Z,101403.47
2023-02-17T05:59:19.893Z,101398.22
2023-02-17T06:01:46.755Z,101406.34
2023-02-17T06:04:13.296Z,101394.56
2023-02-17T06:06:39.865Z,101393.94
2023-02-17T06:09:06.412Z,101389.97
2023-02-17T06:11:33.761Z,101403.53
2023-02-17T06:14:00.590Z,101400.94
2023-02-17T06:16:27.244Z,101409.91
2023-02-17T06:18:53.781Z,101409.56
2023-02-17T06:21:20.327Z,101408.66
2023-02-17T06:23:47.927Z,101408.09
2023-02-17T06:26:14.738Z,101416.47
2023-02-17T06:28:42.544Z,101414.91
2023-02-17T06:31:09.163Z,101418.09
2023-02-17T06:33:36.250Z,101419.25
2023-02-17T06:36:03.246Z,101422.16
2023-02-17T06:38:30.006Z,101423.72
2023-02-17T06:40:56.555Z,101429.47
2023-02-17T06:43:23.127Z,101427.94
2023-02-17T06:45:50.262Z,101433.38
2023-02-17T06:48:16.864Z,101445.50
2023-02-17T06:50:43.509Z,101431.72
2023-02-17T06:53:10.034Z,101440.31
2023-02-17T06:55:39.082Z,101441.22
2023-02-17T06:58:05.929Z,101450.91
2023-02-17T07:00:32.487Z,101454.09
2023-02-17T07:02:59.223Z,101451.78
2023-02-17T07:05:26.001Z,101458.69
2023-02-17T07:07:53.647Z,101454.88
2023-02-17T07:10:21.224Z,101450.31
2023-02-17T07:12:47.800Z,101450.66
2023-02-17T07:15:15.046Z,101447.88
2023-02-17T07:17:41.774Z,101452.25
2023-02-17T07:20:09.420Z,101452.03
2023-02-17T07:22:35.989Z,101448.47
2023-02-17T07:25:02.524Z,101448.94
2023-02-17T07:27:29.082Z,101443.22
2023-02-17T07:29:55.832Z,101452.50
2023-02-17T07:32:22.478Z,101450.47
2023-02-17T07:34:49.059Z,101460.22
2023-02-17T07:37:15.662Z,101462.25
2023-02-17T07:39:42.211Z,101458.47
2023-02-17T07:42:09.879Z,101470.03
2023-02-17T07:44:36.384Z,101461.63
2023-02-17T07:47:02.919Z,101467.84
2023-02-17T07:49:29.520Z,101464.53
2023-02-17T07:51:56.073Z,101467.78
2023-02-17T07:54:22.798Z,101469.31
2023-02-17T07:56:49.386Z,101473.75
2023-02-17T07:59:16.126Z,101478.84
2023-02-17T08:01:42.754Z,101480.06
2023-02-17T08:04:09.483Z,101493.47
2023-02-17T08:06:39.430Z,101489.34
2023-02-17T08:09:24.677Z,101476.38
2023-02-17T08:12:09.656Z,101487.31
2023-02-17T08:14:37.287Z,101484.34
2023-02-17T08:17:03.915Z,101479.28
2023-02-17T08:19:46.501Z,101484.75
2023-02-17T08:22:15.570Z,101492.59
2023-02-17T08:24:42.151Z,101503.56
2023-02-17T08:27:08.971Z,101503.41
2023-02-17T08:29:35.611Z,101503.09
2023-02-17T08:32:02.469Z,101501.66
2023-02-17T08:34:33.653Z,101506.22
2023-02-17T08:37:05.801Z,101504.13
2023-02-17T08:39:33.723Z,101521.03
2023-02-17T08:42:00.713Z,101513.03
2023-02-17T08:44:27.265Z,101517.91
2023-02-17T08:46:54.456Z,101516.06
2023-02-17T08:49:24.243Z,101518.59
2023-02-17T08:51:52.238Z,101516.59
2023-02-17T08:54:19.052Z,101523.91
2023-02-17T08:56:46.079Z,101533.78
2023-02-17T08:59:13.137Z,101533.47
2023-02-17T09:01:40.463Z,101528.59
2023-02-17T09:04:09.127Z,101527.91
2023-02-17T09:06:50.977Z,101521.72
2023-02-17T09:09:20.773Z,101525.34
2023-02-17T09:11:47.341Z,101532.34
2023-02-17T09:14:14.340Z,101531.44
2023-02-17T09:16:41.714Z,101531.81
2023-02-17T09:19:08.652Z,101540.50
2023-02-17T09:21:35.327Z,101543.53
2023-02-17T09:24:01.973Z,101541.72
2023-02-17T09:26:28.586Z,101539.75
2023-02-17T09:28:55.269Z,101540.41
2023-02-17T09:31:25.031Z,101547.59
2023-02-17T09:33:51.717Z,101550.47
2023-02-17T09:36:24.353Z,101552.25
2023-02-17T09:38:51.806Z,101550.69
2023-02-17T09:41:34.657Z,101555.31
2023-02-17T09:44:02.163Z,101560.75
2023-02-17T09:46:37.424Z,101557.41
2023-02-17T09:49:11.442Z,101558.19
2023-02-17T09:51:48.286Z,101561.16
2023-02-17T09:54:22.577Z,101555.16
2023-02-17T09:56:51.742Z,101566.00
2023-02-17T09:59:32.563Z,101562.91
2023-02-17T10:02:01.351Z,101563.44
2023-02-17T10:04:35.956Z,101552.78
2023-02-17T10:07:07.523Z,101560.16
2023-02-17T10:09:40.789Z,101561.03
2023-02-17T10:12:14.030Z,101560.44
2023-02-17T10:14:45.305Z,101562.22
2023-02-17T10:17:30.087Z,101567.84
2023-02-17T10:20:34.022Z,101558.44
2023-02-17T10:23:10.817Z,101564.00
2023-02-17T10:25:52.726Z,101561.81
2023-02-17T10:28:36.508Z,101564.78
2023-02-17T10:31:05.932Z,101564.50
2023-02-17T10:33:36.558Z,101558.09
2023-02-17T10:36:11.031Z,101556.91
2023-02-17T10:38:52.994Z,101563.31
2023-02-17T10:41:36.286Z,101559.28
2023-02-17T10:44:08.854Z,101555.81
2023-02-17T10:46:35.476Z,101555.50
2023-02-17T10:49:02.267Z,101560.03
2023-02-17T10:51:31.202Z,101554.22
2023-02-17T10:54:03.850Z,101550.38
2023-02-17T10:56:41.762Z,101551.84
2023-02-17T10:59:32.730Z,101542.97
2023-02-17T11:02:17.391Z,101544.75
2023-02-17T11:04:46.708Z,101533.09
2023-02-17T11:07:16.905Z,101538.16
2023-02-17T11:09:49.724Z,101536.75
2023-02-17T11:12:29.152Z,101534.78
2023-02-17T11:14:56.506Z,101527.44
2023-02-17T11:17:38.886Z,101528.56
2023-02-17T11:20:13.603Z,101530.81
2023-02-17T11:22:45.111Z,101527.53
2023-02-17T11:25:27.372Z,101517.94
2023-02-17T11:27:57.326Z,101522.59
2023-02-17T11:30:25.000Z,101510.69
2023-02-17T11:32:51.914Z,101516.06
2023-02-17T11:35:28.327Z,101511.19
2023-02-17T11:38:12.309Z,101502.56
2023-02-17T11:40:39.064Z,101511.97
2023-02-17T11:43:06.473Z,101504.88
2023-02-17T11:46:05.619Z,101502.06
2023-02-17T11:48:37.382Z,101498.16
2023-02-17T11:51:36.632Z,101486.34
2023-02-17T11:54:17.080Z,101486.38
2023-02-17T11:56:52.946Z,101480.00
2023-02-17T11:59:23.036Z,101477.91
2023-02-17T12:02:07.206Z,101472.44
2023-02-17T12:05:03.377Z,101471.22
2023-02-17T12:07:38.730Z,101455.19
2023-02-17T12:10:31.142Z,101455.78
2023-02-17T12:13:24.790Z,101460.22
2023-02-17T12:16:06.743Z,101451.59
2023-02-17T12:19:02.155Z,101450.72
2023-02-17T12:21:50.686Z,101448.81
2023-02-17T12:24:35.989Z,101444.66
2023-02-17T12:27:11.248Z,101429.72
2023-02-17T12:29:43.811Z,101435.13
2023-02-17T12:32:58.983Z,101424.81
2023-02-17T12:35:31.460Z,101417.38
2023-02-17T12:38:02.456Z,101413.06
2023-02-17T12:40:42.701Z,101411.97
2023-02-17T12:43:36.282Z,101407.75
2023-02-17T12:46:10.783Z,101404.97
2023-02-17T12:48:40.381Z,101407.00
2023-02-17T12:51:18.759Z,101401.72
2023-02-17T12:53:50.795Z,101400.88
2023-02-17T12:56:40.150Z,101400.63
2023-02-17T12:59:19.903Z,101396.25
2023-02-17T13:01:57.869Z,101397.91
2023-02-17T13:04:26.325Z,101392.78
2023-02-17T13:07:00.798Z,101381.16
2023-02-17T13:09:36.247Z,101383.41
2023-02-17T13:12:17.540Z,101381.69
2023-02-17T13:14:46.368Z,101372.91
2023-02-17T13:17:24.593Z,101367.63
2023-02-17T13:20:11.395Z,101357.94
2023-02-17T13:22:39.842Z,101361.66
2023-02-17T13:25:07.843Z,101355.66
2023-02-17T13:27:36.534Z,101353.25
2023-02-17T13:30:27.037Z,101349.44
2023-02-17T13:33:26.899Z,101339.41
2023-02-17T13:35:53.518Z,101348.09
2023-02-17T13:38:30.066Z,101348.59
2023-02-17T13:41:02.072Z,101343.31
2023-02-17T13:43:33.694Z,101335.66
2023-02-17T13:46:03.807Z,101329.56
2023-02-17T13:48:33.607Z,101331.53
2023-02-17T13:51:27.588Z,101324.50
2023-02-17T13:53:54.312Z,101309.88
2023-02-17T13:56:29.900Z,101316.91
2023-02-17T13:59:17.628Z,101320.66
2023-02-17T14:01:46.053Z,101321.81
2023-02-17T14:04:22.714Z,101318.69
2023-02-17T14:06:50.037Z,101316.81
2023-02-17T14:09:32.097Z,101307.94
2023-02-17T14:12:02.230Z,101318.66
2023-02-17T14:14:32.616Z,101309.44
2023-02-17T14:16:59.186Z,101306.59
2023-02-17T14:19:25.862Z,101313.00
2023-02-17T14:22:02.445Z,101306.28
2023-02-17T14:24:32.589Z,101306.50
2023-02-17T14:27:14.066Z,101303.53
2023-02-17T14:29:49.127Z,101298.16
2023-02-17T14:32:35.927Z,101297.13
2023-02-17T14:35:11.634Z,101295.53
2023-02-17T14:37:40.250Z,101289.31
2023-02-17T14:40:15.776Z,101281.69
2023-02-17T14:42:42.315Z,101281.28
2023-02-17T14:45:09.006Z,101271.63
2023-02-17T14:47:35.535Z,101274.44
2023-02-17T14:50:02.138Z,101274.25
2023-02-17T14:52:28.783Z,101276.09
2023-02-17T14:54:55.353Z,101277.81
2023-02-17T14:57:27.794Z,101269.75
2023-02-17T14:59:57.630Z,101277.63
2023-02-17T15:02:25.016Z,101277.28
2023-02-17T15:04:51.603Z,101274.50
2023-02-17T15:07:18.844Z,101272.41
2023-02-17T15:09:47.328Z,101272.53
2023-02-17T15:12:19.581Z,101263.78
2023-02-17T15:14:47.093Z,101261.41
2023-02-17T15:17:15.068Z,101264.91
2023-02-17T15:19:44.894Z,101256.16
2023-02-17T15:22:13.596Z,101258.19
2023-02-17T15:24:41.257Z,101258.72
2023-02-17T15:27:14.001Z,101263.59
2023-02-17T15:29:40.764Z,101252.66
2023-02-17T15:32:15.415Z,101254.06
2023-02-17T15:34:42.052Z,101258.88
2023-02-17T15:37:11.285Z,101249.63
2023-02-17T15:39:38.094Z,101255.63
2023-02-17T15:42:13.720Z,101258.53
2023-02-17T15:44:46.837Z,101253.03
2023-02-17T15:47:17.555Z,101255.09
2023-02-17T15:49:44.316Z,101240.97
2023-02-17T15:52:14.689Z,101251.78
2023-02-17T15:54:42.958Z,101254.91
2023-02-17T15:57:21.050Z,101243.84
2023-02-17T15:59:48.077Z,101250.72
2023-02-17T16:02:23.408Z,101253.03
2023-02-17T16:04:50.036Z,101248.94
2023-02-17T16:07:16.723Z,101249.34
2023-02-17T16:09:43.339Z,101244.88
2023-02-17T16:12:27.061Z,101247.13
2023-02-17T16:14:54.679Z,101253.09
2023-02-17T16:17:21.345Z,101246.75
2023-02-17T16:19:47.918Z,101252.88
2023-02-17T16:22:14.769Z,101244.47
2023-02-17T16:24:41.326Z,101246.94
2023-02-17T16:27:12.265Z,101244.03
2023-02-17T16:29:39.256Z,101251.13
2023-02-17T16:32:06.163Z,101246.34
2023-02-17T16:34:34.588Z,101251.31
2023-02-17T16:37:04.097Z,101253.69
2023-02-17T16:39:30.723Z,101257.09
2023-02-17T16:41:57.381Z,101255.25
2023-02-17T16:44:24.050Z,101261.53
2023-02-17T16:46:53.353Z,101263.22
2023-02-17T16:49:33.528Z,101267.41
2023-02-17T16:52:01.291Z,101264.03
2023-02-17T16:54:27.836Z,101266.44
2023-02-17T16:56:55.707Z,101269.13
2023-02-17T16:59:24.453Z,101265.66
2023-02-17T17:01:53.419Z,101265.47
2023-02-17T17:04:21.177Z,101268.50
2023-02-17T17:06:50.627Z,101270.84
2023-02-17T17:09:23.215Z,101267.88
2023-02-17T17:11:50.463Z,101266.13
2023-02-17T17:14:18.375Z,101271.06
2023-02-17T17:16:51.754Z,101273.38
2023-02-17T17:19:19.108Z,101277.44
2023-02-17T17:21:45.613Z,101280.13
2023-02-17T17:24:12.157Z,101288.22
2023-02-17T17:26:45.174Z,101289.19
2023-02-17T17:29:13.838Z,101287.19
2023-02-17T17:31:40.770Z,101284.50
2023-02-17T17:34:07.657Z,101292.00
2023-02-17T17:36:38.612Z,101295.94
2023-02-17T17:39:07.987Z,101298.41
2023-02-17T17:41:35.348Z,101303.34
2023-02-17T17:44:02.353Z,101307.63
2023-02-17T17:46:31.585Z,101305.63
2023-02-17T17:49:00.415Z,101298.47
2023-02-17T17:51:29.525Z,101305.19
2023-02-17T17:53:56.673Z,101308.66
2023-02-17T17:56:29.400Z,101310.63
2023-02-17T17:58:57.551Z,101315.50
2023-02-17T18:01:24.628Z,101311.88
2023-02-17T18:03:51.804Z,101323.53
2023-02-17T18:06:46.940Z,101331.19
2023-02-17T18:09:30.246Z,101329.78
2023-02-17T18:12:01.427Z,101335.00
2023-02-17T18:14:28.889Z,101339.69
2023-02-17T18:16:55.603Z,101341.91
2023-02-17T18:19:23.622Z,101332.41
2023-02-17T18:21:50.143Z,101336.41
2023-02-17T18:24:16.685Z,101331.88
2023-02-17T18:26:43.222Z,101340.13
2023-02-17T18:29:09.924Z,101343.28
2023-02-17T18:31:36.702Z,101344.78
2023-02-17T18:34:03.853Z,101342.69
2023-02-17T18:36:31.029Z,101340.00
2023-02-17T18:38:57.602Z,101342.09
2023-02-17T18:41:29.900Z,101346.94
2023-02-17T18:43:58.357Z,101342.41
2023-02-17T18:46:27.086Z,101346.47
2023-02-17T18:48:55.065Z,101347.91
2023-02-17T18:51:23.798Z,101345.25
2023-02-17T18:53:51.196Z,101345.84
2023-02-17T18:56:21.616Z,101349.22
2023-02-17T18:58:49.824Z,101343.94
2023-02-17T19:01:40.825Z,101341.50
2023-02-17T19:04:09.679Z,101345.25
2023-02-17T19:06:36.383Z,101344.50
2023-02-17T19:09:04.721Z,101347.72
2023-02-17T19:11:32.272Z,101347.13
2023-02-17T19:14:00.922Z,101342.50
2023-02-17T19:16:29.845Z,101344.47
2023-02-17T19:18:57.060Z,101349.91
2023-02-17T19:21:24.747Z,101347.19
2023-02-17T19:23:51.554Z,101350.41
2023-02-17T19:26:19.464Z,101346.69
2023-02-17T19:28:46.661Z,101352.22
2023-02-17T19:31:16.677Z,101341.50
2023-02-17T19:33:44.414Z,101352.13
2023-02-17T19:36:13.519Z,101350.97
2023-02-17T19:38:40.135Z,101345.41
2023-02-17T19:41:09.295Z,101352.28
2023-02-17T19:43:36.187Z,101348.47
2023-02-17T19:46:03.595Z,101349.19
2023-02-17T19:48:30.368Z,101351.25
2023-02-17T19:51:03.671Z,101345.69
2023-02-17T19:53:31.654Z,101344.81
2023-02-17T19:56:28.979Z,101340.22
2023-02-17T19:58:57.144Z,101342.38
2023-02-17T20:01:27.437Z,101336.78
2023-02-17T20:03:55.560Z,101340.72
2023-02-17T20:06:27.648Z,101341.78
2023-02-17T20:09:01.416Z,101342.44
2023-02-17T20:11:29.302Z,101343.50
2023-02-17T20:13:59.207Z,101350.28
2023-02-17T20:16:26.211Z,101351.41
2023-02-17T20:18:55.210Z,101353.75
2023-02-17T20:21:24.601Z,101357.63
2023-02-17T20:23:52.499Z,101359.22
2023-02-17T20:26:30.539Z,101357.56
2023-02-17T20:28:58.899Z,101352.50
2023-02-17T20:31:26.445Z,101348.06
2023-02-17T20:33:53.425Z,101352.22
2023-02-17T20:36:22.181Z,101347.56
2023-02-17T20:38:50.141Z,101348.53
2023-02-17T20:41:19.690Z,101346.19
2023-02-17T20:43:46.448Z,101344.94
2023-02-17T20:46:22.155Z,101348.19
2023-02-17T20:48:49.037Z,101344.53
2023-02-17T20:51:15.708Z,101347.66
2023-02-17T20:53:42.445Z,101346.72
2023-02-17T20:56:17.176Z,101351.66
2023-02-17T20:58:44.212Z,101342.06
2023-02-17T21:01:11.374Z,101341.72
2023-02-17T21:03:38.177Z,101346.63
2023-02-17T21:06:14.543Z,101350.09
2023-02-17T21:08:41.113Z,101337.97
2023-02-17T21:11:07.659Z,101341.44
2023-02-17T21:13:34.186Z,101349.13
2023-02-17T21:16:01.491Z,101349.19
2023-02-17T21:18:28.045Z,101349.66
2023-02-17T21:20:54.545Z,101349.59
2023-02-17T21:23:22.609Z,101349.59
2023-02-17T21:25:49.191Z,101346.94
2023-02-17T21:28:17.495Z,101347.69
2023-02-17T21:30:47.226Z,101354.50
2023-02-17T21:33:13.756Z,101354.25
2023-02-17T21:35:40.421Z,101352.31
2023-02-17T21:38:07.065Z,101352.00
2023-02-17T21:40:33.574Z,101347.03
2023-02-17T21:43:18.583Z,101348.88
2023-02-17T21:45:45.575Z,101336.78
2023-02-17T21:48:13.421Z,101345.03
2023-02-17T21:50:39.951Z,101339.75
2023-02-17T21:53:06.498Z,101343.75
2023-02-17T21:55:33.649Z,101339.31
2023-02-17T21:58:00.159Z,101343.66
2023-02-17T22:00:26.744Z,101342.63
2023-02-17T22:02:53.283Z,101338.84
2023-02-17T22:05:19.839Z,101339.56
2023-02-17T22:07:50.022Z,101338.41
2023-02-17T22:10:17.502Z,101336.69
2023-02-17T22:12:44.126Z,101335.09
2023-02-17T22:15:11.567Z,101344.59
2023-02-17T22:17:38.108Z,101343.38
2023-02-17T22:20:05.331Z,101341.47
2023-02-17T22:22:31.891Z,101344.13
2023-02-17T22:24:58.477Z,101342.03
2023-02-17T22:27:25.054Z,101346.16
2023-02-17T22:29:51.561Z,101338.47
2023-02-17T22:32:18.373Z,101341.66
2023-02-17T22:34:45.045Z,101349.91
2023-02-17T22:37:11.630Z,101356.22
2023-02-17T22:39:38.183Z,101347.78
2023-02-17T22:42:05.028Z,101346.19
2023-02-17T22:44:31.659Z,101341.50
2023-02-17T22:46:58.180Z,101340.09
2023-02-17T22:49:24.802Z,101343.91
2023-02-17T22:51:51.340Z,101337.75
2023-02-17T22:54:17.889Z,101340.22
2023-02-17T22:56:44.402Z,101336.31
2023-02-17T22:59:11.023Z,101336.06
2023-02-17T23:01:37.665Z,101332.81
2023-02-17T23:04:05.108Z,101331.84
2023-02-17T23:06:37.129Z,101336.81
2023-02-17T23:09:06.769Z,101327.19
2023-02-17T23:11:51.203Z,101323.13
2023-02-17T23:14:21.990Z,101316.44
2023-02-17T23:16:48.739Z,101313.00
2023-02-17T23:19:18.027Z,101314.78
2023-02-17T23:21:49.989Z,101305.31
2023-02-17T23:24:17.847Z,101299.16
2023-02-17T23:26:44.559Z,101301.38
2023-02-17T23:29:11.519Z,101298.91
2023-02-17T23:31:39.016Z,101298.91
2023-02-17T23:34:06.441Z,101299.97
2023-02-17T23:36:33.511Z,101298.28
2023-02-17T23:39:01.284Z,101302.13
2023-02-17T23:41:28.097Z,101298.97
2023-02-17T23:43:54.728Z,101314.75
2023-02-17T23:46:21.513Z,101318.38
2023-02-17T23:48:48.460Z,101319.16
2023-02-17T23:51:18.116Z,101319.16
2023-02-17T23:53:45.412Z,101313.53
2023-02-17T23:56:19.075Z,101313.81
2023-02-17T23:58:45.640Z,101317.69
